El Turbio, Argentina
Current Conditions -  °F | °C
As of 6:00 PM on Tuesday 21 Oct 2014 (Local Time) from SCCI Reporting Station
Broken Clouds Broken Clouds  
Wind Chill: 50°   Ceiling: 10000
Heat Index: 50°   Visibility: 6mi
Dew Point: 37°   Wind: 13mph
Humidity: 62%   Direction: 240°WSW
Pressure: 29.41"   Gusts: NA
Location:  51.61°S, 72.19°W
Report Text: SCCI 212100Z 24011KT 9999 SCT040 BKN100 10/03 Q0996 NOSIG
Loading
Personal Weather Stations






























Interactive Weather Map
Tropical Storm Tracking
New forecast layout! Learn more

10-Day Weather Forecast

Advertisements
Track Severe Weather on mobile